createdAt,value
2022-08-27T00:00:48.342Z,90.11
2022-08-27T00:03:15.822Z,90.12
2022-08-27T00:05:43.421Z,90.12
2022-08-27T00:08:13.154Z,90.05
2022-08-27T00:10:41.002Z,89.89
2022-08-27T00:13:08.571Z,89.81
2022-08-27T00:15:35.736Z,89.69
2022-08-27T00:18:02.866Z,89.87
2022-08-27T00:20:30.065Z,90.11
2022-08-27T00:22:56.985Z,89.83
2022-08-27T00:25:24.057Z,90.06
2022-08-27T00:27:51.318Z,90.27
2022-08-27T00:30:20.972Z,90.16
2022-08-27T00:32:48.479Z,90.33
2022-08-27T00:35:16.662Z,90.28
2022-08-27T00:37:44.434Z,90.12
2022-08-27T00:40:15.782Z,90.31
2022-08-27T00:42:45.857Z,90.18
2022-08-27T00:45:15.956Z,90.21
2022-08-27T00:47:50.204Z,90.43
2022-08-27T00:50:23.736Z,90.32
2022-08-27T00:52:57.614Z,90.57
2022-08-27T00:55:28.693Z,90.57
2022-08-27T00:58:07.781Z,90.57
2022-08-27T01:00:35.428Z,90.70
2022-08-27T01:03:02.254Z,90.57
2022-08-27T01:05:29.366Z,90.60
2022-08-27T01:08:03.700Z,90.60
2022-08-27T01:10:30.991Z,90.50
2022-08-27T01:12:57.958Z,90.76
2022-08-27T01:15:27.814Z,90.68
2022-08-27T01:17:56.585Z,91.14
2022-08-27T01:20:28.672Z,91.45
2022-08-27T01:23:17.795Z,91.52
2022-08-27T01:25:45.842Z,91.36
2022-08-27T01:28:13.721Z,91.21
2022-08-27T01:30:41.411Z,91.21
2022-08-27T01:33:16.957Z,91.49
2022-08-27T01:35:47.104Z,91.50
2022-08-27T01:38:29.991Z,91.49
2022-08-27T01:40:59.324Z,91.18
2022-08-27T01:43:27.853Z,91.25
2022-08-27T01:45:54.757Z,91.28
2022-08-27T01:48:22.839Z,91.21
2022-08-27T01:50:49.874Z,91.22
2022-08-27T01:53:22.697Z,92.17
2022-08-27T01:55:54.366Z,92.29
2022-08-27T01:58:26.904Z,92.31
2022-08-27T02:00:56.983Z,92.17
2022-08-27T02:03:24.707Z,92.11
2022-08-27T02:05:52.061Z,92.12
2022-08-27T02:08:19.267Z,92.30
2022-08-27T02:10:47.671Z,92.98
2022-08-27T02:13:14.849Z,92.90
2022-08-27T02:15:42.645Z,92.88
2022-08-27T02:18:10.808Z,92.84
2022-08-27T02:20:37.999Z,92.62
2022-08-27T02:23:04.971Z,92.39
2022-08-27T02:25:32.072Z,92.35
2022-08-27T02:28:00.342Z,92.15
2022-08-27T02:30:32.082Z,92.29
2022-08-27T02:33:01.053Z,92.43
2022-08-27T02:35:28.688Z,92.54
2022-08-27T02:37:55.864Z,92.30
2022-08-27T02:40:23.402Z,92.27
2022-08-27T02:42:50.882Z,92.14
2022-08-27T02:45:18.619Z,92.02
2022-08-27T02:47:45.786Z,91.69
2022-08-27T02:50:14.379Z,91.56
2022-08-27T02:52:41.648Z,91.50
2022-08-27T02:55:08.793Z,91.69
2022-08-27T02:57:36.817Z,91.92
2022-08-27T03:00:12.048Z,91.95
2022-08-27T03:02:39.117Z,92.06
2022-08-27T03:05:07.880Z,92.08
2022-08-27T03:07:34.883Z,92.06
2022-08-27T03:10:01.910Z,92.40
2022-08-27T03:12:28.745Z,92.97
2022-08-27T03:14:55.674Z,92.80
2022-08-27T03:17:40.842Z,92.52
2022-08-27T03:20:09.124Z,92.34
2022-08-27T03:22:35.974Z,92.09
2022-08-27T03:25:04.743Z,91.95
2022-08-27T03:27:31.754Z,91.93
2022-08-27T03:30:03.118Z,91.98
2022-08-27T03:32:31.061Z,92.27
2022-08-27T03:34:58.795Z,92.69
2022-08-27T03:37:26.391Z,92.61
2022-08-27T03:39:53.438Z,92.56
2022-08-27T03:42:20.657Z,92.41
2022-08-27T03:44:48.100Z,92.39
2022-08-27T03:47:15.814Z,92.38
2022-08-27T03:49:42.711Z,92.25
2022-08-27T03:52:10.416Z,92.17
2022-08-27T03:54:38.320Z,92.50
2022-08-27T03:57:05.979Z,92.54
2022-08-27T03:59:33.414Z,92.89
2022-08-27T04:02:01.671Z,92.74
2022-08-27T04:04:28.449Z,92.84
2022-08-27T04:06:55.202Z,92.75
2022-08-27T04:09:26.220Z,92.63
2022-08-27T04:11:53.163Z,92.89
2022-08-27T04:14:26.860Z,92.78
2022-08-27T04:16:57.395Z,92.56
2022-08-27T04:19:28.074Z,92.49
2022-08-27T04:22:02.639Z,92.08
2022-08-27T04:24:31.909Z,92.48
2022-08-27T04:27:00.065Z,92.56
2022-08-27T04:29:27.260Z,92.12
2022-08-27T04:31:54.906Z,92.45
2022-08-27T04:34:22.115Z,92.69
2022-08-27T04:36:50.156Z,93.17
2022-08-27T04:39:17.120Z,93.04
2022-08-27T04:41:43.999Z,92.92
2022-08-27T04:44:11.156Z,92.86
2022-08-27T04:46:40.424Z,92.87
2022-08-27T04:49:10.717Z,92.78
2022-08-27T04:51:40.150Z,92.79
2022-08-27T04:54:08.171Z,93.04
2022-08-27T04:56:36.605Z,92.84
2022-08-27T04:59:06.923Z,93.01
2022-08-27T05:01:34.137Z,92.75
2022-08-27T05:04:01.058Z,92.74
2022-08-27T05:06:27.886Z,92.81
2022-08-27T05:08:55.617Z,92.59
2022-08-27T05:11:24.842Z,92.83
2022-08-27T05:13:51.764Z,93.00
2022-08-27T05:16:21.805Z,92.74
2022-08-27T05:18:50.437Z,92.70
2022-08-27T05:21:31.801Z,92.43
2022-08-27T05:24:00.893Z,92.21
2022-08-27T05:26:28.887Z,92.21
2022-08-27T05:28:55.835Z,92.17
2022-08-27T05:31:22.946Z,91.82
2022-08-27T05:33:50.137Z,91.53
2022-08-27T05:36:20.965Z,91.36
2022-08-27T05:38:49.326Z,91.30
2022-08-27T05:41:19.219Z,91.18
2022-08-27T05:43:50.218Z,91.12
2022-08-27T05:46:20.424Z,91.12
2022-08-27T05:48:48.817Z,91.17
2022-08-27T05:51:28.360Z,91.62
2022-08-27T05:53:57.555Z,91.61
2022-08-27T05:56:25.638Z,91.46
2022-08-27T05:59:11.042Z,91.42
2022-08-27T06:01:41.543Z,91.51
2022-08-27T06:04:09.461Z,91.40
2022-08-27T06:06:38.901Z,91.24
2022-08-27T06:09:07.460Z,91.02
2022-08-27T06:11:34.625Z,91.10
2022-08-27T06:14:01.384Z,91.20
2022-08-27T06:16:28.122Z,91.15
2022-08-27T06:18:57.263Z,91.08
2022-08-27T06:21:25.087Z,91.02
2022-08-27T06:23:54.459Z,91.27
2022-08-27T06:26:23.511Z,91.18
2022-08-27T06:28:50.894Z,91.24
2022-08-27T06:31:24.097Z,90.60
2022-08-27T06:33:52.051Z,90.53
2022-08-27T06:36:25.582Z,90.63
2022-08-27T06:38:53.507Z,90.61
2022-08-27T06:41:24.038Z,90.61
2022-08-27T06:43:52.201Z,90.46
2022-08-27T06:46:22.136Z,90.12
2022-08-27T06:48:55.941Z,90.39
2022-08-27T06:51:31.471Z,90.45
2022-08-27T06:54:00.425Z,90.28
2022-08-27T06:56:27.648Z,90.34
2022-08-27T06:59:00.484Z,90.53
2022-08-27T07:01:34.316Z,90.41
2022-08-27T07:04:04.702Z,90.80
2022-08-27T07:06:34.948Z,91.20
2022-08-27T07:09:01.878Z,91.04
2022-08-27T07:11:31.927Z,91.11
2022-08-27T07:13:59.194Z,91.11
2022-08-27T07:16:28.456Z,91.40
2022-08-27T07:18:59.010Z,91.62
2022-08-27T07:21:30.727Z,91.69
2022-08-27T07:24:04.495Z,91.62
2022-08-27T07:26:33.630Z,91.28
2022-08-27T07:29:00.839Z,91.11
2022-08-27T07:31:28.125Z,91.52
2022-08-27T07:33:55.401Z,91.24
2022-08-27T07:36:23.308Z,89.99
2022-08-27T07:39:00.831Z,89.86
2022-08-27T07:41:30.966Z,89.45
2022-08-27T07:44:19.908Z,89.88
2022-08-27T07:46:49.252Z,89.92
2022-08-27T07:49:20.109Z,90.00
2022-08-27T07:51:47.339Z,89.78
2022-08-27T07:54:15.301Z,90.17
2022-08-27T07:56:42.676Z,89.94
2022-08-27T07:59:21.725Z,89.99
2022-08-27T08:01:51.311Z,89.92
2022-08-27T08:04:20.413Z,89.22
2022-08-27T08:06:47.864Z,88.60
2022-08-27T08:09:14.735Z,88.38
2022-08-27T08:11:41.996Z,87.45
2022-08-27T08:14:08.808Z,88.12
2022-08-27T08:16:35.559Z,88.75
2022-08-27T08:19:02.443Z,88.96
2022-08-27T08:21:29.198Z,89.36
2022-08-27T08:23:56.050Z,88.96
2022-08-27T08:26:23.867Z,88.98
2022-08-27T08:28:50.708Z,89.51
2022-08-27T08:31:17.943Z,89.21
2022-08-27T08:33:47.681Z,89.57
2022-08-27T08:36:16.585Z,89.82
2022-08-27T08:38:45.229Z,89.76
2022-08-27T08:41:51.500Z,89.55
2022-08-27T08:44:43.128Z,90.29
2022-08-27T08:47:19.870Z,90.37
2022-08-27T08:49:56.166Z,89.79
2022-08-27T08:52:35.549Z,89.48
2022-08-27T08:55:39.422Z,89.46
2022-08-27T08:58:25.282Z,89.66
2022-08-27T09:00:59.124Z,89.11
2022-08-27T09:03:27.556Z,89.18
2022-08-27T09:06:10.415Z,88.38
2022-08-27T09:08:42.021Z,88.28
2022-08-27T09:11:28.745Z,87.97
2022-08-27T09:14:24.729Z,87.98
2022-08-27T09:16:56.568Z,87.86
2022-08-27T09:19:24.673Z,88.31
2022-08-27T09:22:03.129Z,87.77
2022-08-27T09:24:42.291Z,87.48
2022-08-27T09:27:12.575Z,87.07
2022-08-27T09:29:51.680Z,86.48
2022-08-27T09:32:27.124Z,86.29
2022-08-27T09:34:58.308Z,86.38
2022-08-27T09:37:38.923Z,86.06
2022-08-27T09:40:31.966Z,86.36
2022-08-27T09:43:20.763Z,86.00
2022-08-27T09:45:59.668Z,86.89
2022-08-27T09:48:32.208Z,85.97
2022-08-27T09:51:12.473Z,86.32
2022-08-27T09:53:59.984Z,85.68
2022-08-27T09:56:31.288Z,85.74
2022-08-27T09:59:06.515Z,85.82
2022-08-27T10:01:35.864Z,85.60
2022-08-27T10:04:10.951Z,85.54
2022-08-27T10:06:39.036Z,85.99
2022-08-27T10:09:14.685Z,85.49
2022-08-27T10:11:50.437Z,84.73
2022-08-27T10:14:40.554Z,84.35
2022-08-27T10:17:18.006Z,83.89
2022-08-27T10:19:54.103Z,83.49
2022-08-27T10:22:47.101Z,82.58
2022-08-27T10:25:32.838Z,81.34
2022-08-27T10:28:38.935Z,80.72
2022-08-27T10:31:17.928Z,80.49
2022-08-27T10:33:54.023Z,81.15
2022-08-27T10:36:21.953Z,80.69
2022-08-27T10:39:03.807Z,80.27
2022-08-27T10:41:42.053Z,80.27
2022-08-27T10:44:31.813Z,79.85
2022-08-27T10:47:10.450Z,79.28
2022-08-27T10:49:40.178Z,78.39
2022-08-27T10:52:12.646Z,78.24
2022-08-27T10:54:49.972Z,78.26
2022-08-27T10:57:58.962Z,77.06
2022-08-27T11:00:43.029Z,77.95
2022-08-27T11:03:27.670Z,74.96
2022-08-27T11:06:05.813Z,71.73
2022-08-27T11:08:39.607Z,68.57
2022-08-27T11:12:03.345Z,67.27
2022-08-27T11:14:22.219Z,69.05
2022-08-27T11:16:55.238Z,70.46
2022-08-27T11:19:32.442Z,70.12
2022-08-27T11:22:04.257Z,71.41
2022-08-27T11:24:35.199Z,70.72
2022-08-27T11:27:06.091Z,72.68
2022-08-27T11:29:49.631Z,71.33
2022-08-27T11:32:49.291Z,71.87
2022-08-27T11:35:30.898Z,72.75
2022-08-27T11:38:13.955Z,73.04
2022-08-27T11:40:43.774Z,72.27
2022-08-27T11:43:18.721Z,73.28
2022-08-27T11:46:00.593Z,72.06
2022-08-27T11:48:30.718Z,72.45
2022-08-27T11:51:04.771Z,71.98
2022-08-27T11:53:34.638Z,72.12
2022-08-27T11:56:41.547Z,71.32
2022-08-27T11:59:26.597Z,72.38
2022-08-27T12:02:10.038Z,71.79
2022-08-27T12:04:38.582Z,72.20
2022-08-27T12:07:14.742Z,72.75
2022-08-27T12:09:56.504Z,71.80
2022-08-27T12:12:53.149Z,71.94
2022-08-27T12:15:38.799Z,71.33
2022-08-27T12:18:26.778Z,71.19
2022-08-27T12:20:56.584Z,71.85
2022-08-27T12:23:44.018Z,72.31
2022-08-27T12:26:26.017Z,72.93
2022-08-27T12:29:24.105Z,71.71
2022-08-27T12:32:01.423Z,72.89
2022-08-27T12:34:30.027Z,71.70
2022-08-27T12:36:56.842Z,71.81
2022-08-27T12:39:37.538Z,71.04
2022-08-27T12:42:12.973Z,71.93
2022-08-27T12:44:39.920Z,72.61
2022-08-27T12:47:11.928Z,71.88
2022-08-27T12:49:58.016Z,71.80
2022-08-27T12:52:53.064Z,69.21
2022-08-27T12:55:45.250Z,69.64
2022-08-27T12:58:36.765Z,70.29
2022-08-27T13:01:36.588Z,69.93
2022-08-27T13:04:24.457Z,68.52
2022-08-27T13:06:51.863Z,69.49
2022-08-27T13:09:33.689Z,70.29
2022-08-27T13:12:01.975Z,70.05
2022-08-27T13:14:36.862Z,69.59
2022-08-27T13:17:09.911Z,69.20
2022-08-27T13:19:51.217Z,69.62
2022-08-27T13:22:29.050Z,71.28
2022-08-27T13:24:56.823Z,72.20
2022-08-27T13:27:36.165Z,73.47
2022-08-27T13:30:11.971Z,72.11
2022-08-27T13:32:59.784Z,72.57
2022-08-27T13:35:26.699Z,72.89
2022-08-27T13:37:54.624Z,74.17
2022-08-27T13:40:28.882Z,74.79
2022-08-27T13:43:09.095Z,75.57
2022-08-27T13:45:39.036Z,75.44
2022-08-27T13:48:06.663Z,75.30
2022-08-27T13:50:35.077Z,76.13
2022-08-27T13:53:27.307Z,75.82
2022-08-27T13:55:55.756Z,76.95
2022-08-27T13:58:31.454Z,77.85
2022-08-27T14:01:16.257Z,77.77
2022-08-27T14:03:57.675Z,77.81
2022-08-27T14:06:45.258Z,78.96
2022-08-27T14:09:27.864Z,78.69
2022-08-27T14:12:05.430Z,78.77
2022-08-27T14:14:41.135Z,78.62
2022-08-27T14:17:25.726Z,79.27
2022-08-27T14:20:00.643Z,78.57
2022-08-27T14:22:27.896Z,79.66
2022-08-27T14:24:54.624Z,79.01
2022-08-27T14:27:21.320Z,79.01
2022-08-27T14:29:49.566Z,79.01
2022-08-27T14:32:19.033Z,79.13
2022-08-27T14:34:46.240Z,78.75
2022-08-27T14:37:14.576Z,79.08
2022-08-27T14:39:43.350Z,79.26
2022-08-27T14:42:12.434Z,79.16
2022-08-27T14:44:39.175Z,79.77
2022-08-27T14:47:09.518Z,79.36
2022-08-27T14:49:39.785Z,79.43
2022-08-27T14:52:07.913Z,79.20
2022-08-27T14:54:35.090Z,79.66
2022-08-27T14:57:03.081Z,79.88
2022-08-27T14:59:30.052Z,79.16
2022-08-27T15:01:58.877Z,79.56
2022-08-27T15:04:26.645Z,79.72
2022-08-27T15:06:55.243Z,79.14
2022-08-27T15:09:22.444Z,78.66
2022-08-27T15:11:50.039Z,78.21
2022-08-27T15:14:23.574Z,77.61
2022-08-27T15:16:50.655Z,77.11
2022-08-27T15:19:17.348Z,77.34
2022-08-27T15:21:47.116Z,77.04
2022-08-27T15:24:25.839Z,77.89
2022-08-27T15:26:57.401Z,77.07
2022-08-27T15:29:25.626Z,76.02
2022-08-27T15:31:52.849Z,75.44
2022-08-27T15:34:19.570Z,75.69
2022-08-27T15:36:46.495Z,75.86
2022-08-27T15:39:13.192Z,75.83
2022-08-27T15:42:03.043Z,76.37
2022-08-27T15:44:29.051Z,75.21
2022-08-27T15:46:56.101Z,74.56
2022-08-27T15:49:22.808Z,75.53
2022-08-27T15:51:49.638Z,76.15
2022-08-27T15:54:19.017Z,75.56
2022-08-27T15:56:45.752Z,75.23
2022-08-27T15:59:12.633Z,75.76
2022-08-27T16:01:39.793Z,75.85
2022-08-27T16:04:07.156Z,76.57
2022-08-27T16:06:34.857Z,75.80
2022-08-27T16:09:02.380Z,76.67
2022-08-27T16:11:29.685Z,76.98
2022-08-27T16:13:56.444Z,76.87
2022-08-27T16:16:27.716Z,76.85
2022-08-27T16:18:54.903Z,76.31
2022-08-27T16:21:21.809Z,76.85
2022-08-27T16:23:48.807Z,76.74
2022-08-27T16:26:16.561Z,76.44
2022-08-27T16:28:44.081Z,76.97
2022-08-27T16:31:13.114Z,77.24
2022-08-27T16:33:41.787Z,77.91
2022-08-27T16:36:09.305Z,77.82
2022-08-27T16:38:36.605Z,77.48
2022-08-27T16:41:05.100Z,78.09
2022-08-27T16:43:32.420Z,77.35
2022-08-27T16:46:00.441Z,77.31
2022-08-27T16:48:46.824Z,77.61
2022-08-27T16:51:22.823Z,78.21
2022-08-27T16:53:51.026Z,77.50
2022-08-27T16:56:20.542Z,77.93
2022-08-27T16:58:52.974Z,78.21
2022-08-27T17:01:23.010Z,77.49
2022-08-27T17:04:08.978Z,78.21
2022-08-27T17:06:40.997Z,77.76
2022-08-27T17:09:10.318Z,77.76
2022-08-27T17:11:41.761Z,77.60
2022-08-27T17:14:10.648Z,78.14
2022-08-27T17:16:37.620Z,77.95
2022-08-27T17:19:06.515Z,77.62
2022-08-27T17:21:34.752Z,78.05
2022-08-27T17:24:02.627Z,78.67
2022-08-27T17:26:31.682Z,77.81
2022-08-27T17:28:59.026Z,78.15
2022-08-27T17:31:34.840Z,77.68
2022-08-27T17:34:01.565Z,77.46
2022-08-27T17:36:29.906Z,77.56
2022-08-27T17:38:56.786Z,77.85
2022-08-27T17:41:33.864Z,78.29
2022-08-27T17:44:06.582Z,78.34
2022-08-27T17:46:33.366Z,78.42
2022-08-27T17:49:00.145Z,78.67
2022-08-27T17:51:27.945Z,78.21
2022-08-27T17:54:00.905Z,78.36
2022-08-27T17:56:29.517Z,78.32
2022-08-27T17:58:56.747Z,77.98
2022-08-27T18:01:32.163Z,78.39
2022-08-27T18:03:59.788Z,78.25
2022-08-27T18:06:28.192Z,78.80
2022-08-27T18:08:55.115Z,78.56
2022-08-27T18:11:22.062Z,78.54
2022-08-27T18:13:53.983Z,78.70
2022-08-27T18:16:21.602Z,79.00
2022-08-27T18:18:48.447Z,78.64
2022-08-27T18:21:17.585Z,79.16
2022-08-27T18:23:52.184Z,78.58
2022-08-27T18:26:21.564Z,79.23
2022-08-27T18:28:49.026Z,79.85
2022-08-27T18:31:19.808Z,80.24
2022-08-27T18:33:46.930Z,80.28
2022-08-27T18:36:14.881Z,80.14
2022-08-27T18:38:41.804Z,80.66
2022-08-27T18:41:09.157Z,80.88
2022-08-27T18:43:36.546Z,80.57
2022-08-27T18:46:04.787Z,80.58
2022-08-27T18:48:32.302Z,80.61
2022-08-27T18:51:01.580Z,80.75
2022-08-27T18:53:32.276Z,81.07
2022-08-27T18:55:59.319Z,81.34
2022-08-27T18:58:26.615Z,81.07
2022-08-27T19:00:58.015Z,81.27
2022-08-27T19:03:29.288Z,81.61
2022-08-27T19:05:56.346Z,81.43
2022-08-27T19:08:24.309Z,81.65
2022-08-27T19:10:51.069Z,81.49
2022-08-27T19:13:17.907Z,81.27
2022-08-27T19:15:52.275Z,81.63
2022-08-27T19:18:19.435Z,81.15
2022-08-27T19:20:47.051Z,81.13
2022-08-27T19:23:13.816Z,81.22
2022-08-27T19:25:40.769Z,81.41
2022-08-27T19:28:07.595Z,81.82
2022-08-27T19:30:35.579Z,82.10
2022-08-27T19:33:02.343Z,82.02
2022-08-27T19:35:29.202Z,82.49
2022-08-27T19:37:55.962Z,82.86
2022-08-27T19:40:22.978Z,82.78
2022-08-27T19:42:50.738Z,82.90
2022-08-27T19:45:23.129Z,82.26
2022-08-27T19:47:53.857Z,82.64
2022-08-27T19:50:21.970Z,82.09
2022-08-27T19:52:49.847Z,82.26
2022-08-27T19:55:17.148Z,83.33
2022-08-27T19:57:44.790Z,83.29
2022-08-27T20:00:17.512Z,83.29
2022-08-27T20:02:44.207Z,82.53
2022-08-27T20:05:19.252Z,82.41
2022-08-27T20:07:51.909Z,82.65
2022-08-27T20:10:21.804Z,82.80
2022-08-27T20:12:49.794Z,82.98
2022-08-27T20:15:17.457Z,82.96
2022-08-27T20:17:45.233Z,82.97
2022-08-27T20:20:13.246Z,83.20
2022-08-27T20:22:40.295Z,83.57
2022-08-27T20:25:07.998Z,83.47
2022-08-27T20:27:34.926Z,83.77
2022-08-27T20:30:03.631Z,84.09
2022-08-27T20:32:30.847Z,84.11
2022-08-27T20:34:57.725Z,84.16
2022-08-27T20:37:24.707Z,84.31
2022-08-27T20:39:52.517Z,84.27
2022-08-27T20:42:20.544Z,84.40
2022-08-27T20:44:47.853Z,84.73
2022-08-27T20:47:16.561Z,84.73
2022-08-27T20:49:44.642Z,84.87
2022-08-27T20:52:12.999Z,85.06
2022-08-27T20:54:40.729Z,85.13
2022-08-27T20:57:08.726Z,85.27
2022-08-27T20:59:54.019Z,85.39
2022-08-27T21:02:23.613Z,85.75
2022-08-27T21:04:51.325Z,85.75
2022-08-27T21:07:20.299Z,85.88
2022-08-27T21:09:55.991Z,86.15
2022-08-27T21:12:29.011Z,86.24
2022-08-27T21:14:58.054Z,86.45
2022-08-27T21:17:27.409Z,86.80
2022-08-27T21:19:54.647Z,87.01
2022-08-27T21:22:22.821Z,87.07
2022-08-27T21:24:49.741Z,87.14
2022-08-27T21:27:17.733Z,87.47
2022-08-27T21:29:45.056Z,87.12
2022-08-27T21:32:13.517Z,87.22
2022-08-27T21:34:41.829Z,87.15
2022-08-27T21:37:10.451Z,87.26
2022-08-27T21:39:37.700Z,87.54
2022-08-27T21:42:04.891Z,87.43
2022-08-27T21:44:31.737Z,87.77
2022-08-27T21:46:58.816Z,88.08
2022-08-27T21:49:25.518Z,88.18
2022-08-27T21:51:52.423Z,88.91
2022-08-27T21:54:19.599Z,88.79
2022-08-27T21:56:46.607Z,88.58
2022-08-27T21:59:13.363Z,88.71
2022-08-27T22:01:40.582Z,88.51
2022-08-27T22:04:07.316Z,88.44
2022-08-27T22:06:34.276Z,88.57
2022-08-27T22:09:01.301Z,88.61
2022-08-27T22:11:30.626Z,88.28
2022-08-27T22:13:58.376Z,88.52
2022-08-27T22:16:25.135Z,88.20
2022-08-27T22:18:54.541Z,88.01
2022-08-27T22:21:25.840Z,87.64
2022-08-27T22:23:52.595Z,87.94
2022-08-27T22:26:21.058Z,87.89
2022-08-27T22:28:48.220Z,88.13
2022-08-27T22:31:15.814Z,88.13
2022-08-27T22:33:42.857Z,88.09
2022-08-27T22:36:09.539Z,88.22
2022-08-27T22:38:36.290Z,88.25
2022-08-27T22:41:03.155Z,88.07
2022-08-27T22:43:30.527Z,88.18
2022-08-27T22:45:57.518Z,87.99
2022-08-27T22:48:24.457Z,88.18
2022-08-27T22:50:51.200Z,88.38
2022-08-27T22:53:17.991Z,88.59
2022-08-27T22:55:49.937Z,88.27
2022-08-27T22:58:17.952Z,88.31
2022-08-27T23:00:50.786Z,88.38
2022-08-27T23:03:19.994Z,88.35
2022-08-27T23:05:47.085Z,88.28
2022-08-27T23:08:14.559Z,88.42
2022-08-27T23:10:42.716Z,88.18
2022-08-27T23:13:10.590Z,88.41
2022-08-27T23:15:38.638Z,88.04
2022-08-27T23:18:05.760Z,88.45
2022-08-27T23:20:32.810Z,88.51
2022-08-27T23:22:59.653Z,88.57
2022-08-27T23:25:45.407Z,88.53
2022-08-27T23:28:15.046Z,88.25
2022-08-27T23:30:43.281Z,87.95
2022-08-27T23:33:10.042Z,87.81
2022-08-27T23:35:37.056Z,87.89
2022-08-27T23:38:04.124Z,87.83
2022-08-27T23:40:31.092Z,88.18
2022-08-27T23:42:57.892Z,88.26
2022-08-27T23:45:26.045Z,88.62
2022-08-27T23:47:53.044Z,88.47
2022-08-27T23:50:21.858Z,88.69
2022-08-27T23:52:54.052Z,88.51
2022-08-27T23:55:22.220Z,88.62
2022-08-27T23:57:49.931Z,88.67
